createdAt,value
2022-10-02T00:00:22.272Z,997.61
2022-10-02T00:01:17.566Z,997.65
2022-10-02T00:02:20.578Z,997.65
2022-10-02T00:03:21.734Z,997.61
2022-10-02T00:04:21.140Z,997.61
2022-10-02T00:05:21.393Z,997.60
2022-10-02T00:06:21.115Z,997.61
2022-10-02T00:07:18.812Z,997.63
2022-10-02T00:08:23.892Z,997.70
2022-10-02T00:09:18.904Z,997.67
2022-10-02T00:10:20.611Z,997.65
2022-10-02T00:11:20.700Z,997.64
2022-10-02T00:12:24.191Z,997.66
2022-10-02T00:13:20.231Z,997.68
2022-10-02T00:14:18.544Z,997.63
2022-10-02T00:15:20.769Z,997.70
2022-10-02T00:16:20.962Z,997.71
2022-10-02T00:17:20.197Z,997.71
2022-10-02T00:18:19.954Z,997.63
2022-10-02T00:19:18.195Z,997.65
2022-10-02T00:20:21.635Z,997.65
2022-10-02T00:21:18.121Z,997.68
2022-10-02T00:22:18.914Z,997.68
2022-10-02T00:23:19.824Z,997.70
2022-10-02T00:24:20.870Z,997.66
2022-10-02T00:25:18.481Z,997.68
2022-10-02T00:26:21.930Z,997.76
2022-10-02T00:27:18.411Z,997.73
2022-10-02T00:28:20.383Z,997.74
2022-10-02T00:29:21.480Z,997.76
2022-10-02T00:30:21.195Z,997.73
2022-10-02T00:31:20.222Z,997.78
2022-10-02T00:32:18.958Z,997.79
2022-10-02T00:33:19.193Z,997.77
2022-10-02T00:34:21.277Z,997.82
2022-10-02T00:35:25.475Z,997.81
2022-10-02T00:36:20.972Z,997.82
2022-10-02T00:37:21.496Z,997.77
2022-10-02T00:38:19.698Z,997.76
2022-10-02T00:39:16.341Z,997.75
2022-10-02T00:40:20.077Z,997.73
2022-10-02T00:41:21.761Z,997.75
2022-10-02T00:42:20.037Z,997.73
2022-10-02T00:43:16.013Z,997.76
2022-10-02T00:44:18.640Z,997.77
2022-10-02T00:45:22.975Z,997.76
2022-10-02T00:46:20.571Z,997.79
2022-10-02T00:47:16.881Z,997.82
2022-10-02T00:48:16.001Z,997.79
2022-10-02T00:49:20.408Z,997.82
2022-10-02T00:50:20.088Z,997.86
2022-10-02T00:51:19.871Z,997.77
2022-10-02T00:52:18.438Z,997.81
2022-10-02T00:53:19.768Z,997.82
2022-10-02T00:54:21.393Z,997.83
2022-10-02T00:55:18.937Z,997.82
2022-10-02T00:56:19.771Z,997.80
2022-10-02T00:57:17.833Z,997.80
2022-10-02T00:58:18.285Z,997.69
2022-10-02T00:59:20.828Z,997.70
2022-10-02T01:00:21.345Z,997.71
2022-10-02T01:01:18.757Z,997.79
2022-10-02T01:02:19.054Z,997.82
2022-10-02T01:03:20.958Z,997.72
2022-10-02T01:04:20.781Z,997.78
2022-10-02T01:05:18.331Z,997.83
2022-10-02T01:06:19.635Z,997.83
2022-10-02T01:07:19.938Z,997.87
2022-10-02T01:08:20.608Z,997.86
2022-10-02T01:09:20.466Z,997.87
2022-10-02T01:10:19.604Z,997.89
2022-10-02T01:11:20.605Z,997.86
2022-10-02T01:12:19.996Z,997.89
2022-10-02T01:13:18.998Z,997.88
2022-10-02T01:14:22.375Z,997.89
2022-10-02T01:15:20.132Z,997.92
2022-10-02T01:16:21.776Z,997.90
2022-10-02T01:17:20.750Z,997.92
2022-10-02T01:18:21.651Z,997.88
2022-10-02T01:19:19.800Z,997.86
2022-10-02T01:20:21.162Z,997.90
2022-10-02T01:21:20.678Z,997.88
2022-10-02T01:22:20.971Z,997.87
2022-10-02T01:23:19.351Z,997.85
2022-10-02T01:24:18.748Z,997.89
2022-10-02T01:25:22.574Z,997.89
2022-10-02T01:26:17.768Z,997.92
2022-10-02T01:27:23.241Z,997.89
2022-10-02T01:28:22.169Z,997.94
2022-10-02T01:29:22.466Z,997.93
2022-10-02T01:30:20.570Z,997.95
2022-10-02T01:31:19.682Z,998.00
2022-10-02T01:32:17.835Z,997.97
2022-10-02T01:33:22.584Z,998.03
2022-10-02T01:34:22.124Z,998.02
2022-10-02T01:35:20.483Z,998.02
2022-10-02T01:36:21.756Z,998.01
2022-10-02T01:37:20.143Z,998.05
2022-10-02T01:38:20.958Z,998.02
2022-10-02T01:39:21.402Z,998.05
2022-10-02T01:40:18.450Z,998.03
2022-10-02T01:41:22.121Z,998.02
2022-10-02T01:42:19.802Z,998.02
2022-10-02T01:43:21.401Z,998.00
2022-10-02T01:44:21.895Z,998.00
2022-10-02T01:45:19.392Z,998.02
2022-10-02T01:46:19.628Z,998.04
2022-10-02T01:47:21.938Z,998.08
2022-10-02T01:48:20.379Z,998.07
2022-10-02T01:49:19.188Z,998.05
2022-10-02T01:50:18.488Z,998.09
2022-10-02T01:51:22.247Z,998.06
2022-10-02T01:52:19.329Z,998.03
2022-10-02T01:53:21.831Z,998.04
2022-10-02T01:54:20.950Z,998.05
2022-10-02T01:55:22.204Z,998.03
2022-10-02T01:56:20.946Z,998.03
2022-10-02T01:57:18.868Z,997.98
2022-10-02T01:58:18.462Z,998.04
2022-10-02T01:59:19.962Z,998.02
2022-10-02T02:00:19.301Z,997.99
2022-10-02T02:01:20.326Z,998.02
2022-10-02T02:02:21.666Z,998.03
2022-10-02T02:03:21.327Z,998.05
2022-10-02T02:04:19.430Z,997.98
2022-10-02T02:05:22.148Z,998.01
2022-10-02T02:06:21.788Z,997.97
2022-10-02T02:07:23.063Z,997.89
2022-10-02T02:08:20.646Z,997.92
2022-10-02T02:09:22.555Z,997.89
2022-10-02T02:10:21.747Z,997.91
2022-10-02T02:11:21.329Z,997.89
2022-10-02T02:12:22.766Z,997.89
2022-10-02T02:13:22.028Z,997.86
2022-10-02T02:14:19.612Z,997.96
2022-10-02T02:15:22.576Z,997.92
2022-10-02T02:16:20.529Z,997.97
2022-10-02T02:17:22.264Z,997.91
2022-10-02T02:18:20.877Z,997.91
2022-10-02T02:19:22.115Z,997.91
2022-10-02T02:20:22.568Z,997.89
2022-10-02T02:21:22.166Z,997.90
2022-10-02T02:22:19.586Z,997.89
2022-10-02T02:23:19.541Z,997.90
2022-10-02T02:24:22.752Z,997.93
2022-10-02T02:25:22.943Z,997.89
2022-10-02T02:26:18.209Z,997.95
2022-10-02T02:27:19.719Z,997.95
2022-10-02T02:28:23.346Z,997.98
2022-10-02T02:29:22.016Z,997.92
2022-10-02T02:30:22.068Z,997.98
2022-10-02T02:31:20.139Z,997.99
2022-10-02T02:32:22.125Z,997.97
2022-10-02T02:33:22.187Z,998.01
2022-10-02T02:34:19.543Z,997.99
2022-10-02T02:35:21.776Z,997.95
2022-10-02T02:36:23.579Z,998.03
2022-10-02T02:37:22.165Z,998.03
2022-10-02T02:38:20.472Z,998.03
2022-10-02T02:39:19.913Z,998.05
2022-10-02T02:40:21.579Z,998.02
2022-10-02T02:41:22.115Z,998.07
2022-10-02T02:42:25.158Z,998.10
2022-10-02T02:43:21.785Z,998.10
2022-10-02T02:44:19.380Z,998.12
2022-10-02T02:45:23.367Z,998.08
2022-10-02T02:46:20.565Z,998.06
2022-10-02T02:47:19.040Z,998.07
2022-10-02T02:48:21.994Z,998.05
2022-10-02T02:49:18.653Z,997.96
2022-10-02T02:50:23.232Z,998.00
2022-10-02T02:51:21.938Z,997.95
2022-10-02T02:52:18.616Z,997.98
2022-10-02T02:53:22.291Z,997.98
2022-10-02T02:54:21.482Z,998.04
2022-10-02T02:55:22.061Z,998.00
2022-10-02T02:56:18.736Z,998.03
2022-10-02T02:57:22.071Z,998.03
2022-10-02T02:58:22.154Z,998.01
2022-10-02T02:59:22.300Z,997.99
2022-10-02T03:00:21.629Z,998.00
2022-10-02T03:01:20.447Z,998.01
2022-10-02T03:02:22.537Z,998.00
2022-10-02T03:03:20.914Z,997.99
2022-10-02T03:04:20.473Z,998.00
2022-10-02T03:05:21.275Z,998.00
2022-10-02T03:06:20.942Z,998.02
2022-10-02T03:07:21.064Z,998.04
2022-10-02T03:08:21.165Z,998.03
2022-10-02T03:09:21.217Z,998.08
2022-10-02T03:10:21.838Z,998.01
2022-10-02T03:11:22.340Z,997.98
2022-10-02T03:12:21.106Z,997.98
2022-10-02T03:13:21.542Z,997.96
2022-10-02T03:14:21.677Z,998.00
2022-10-02T03:15:22.030Z,997.94
2022-10-02T03:16:21.792Z,997.91
2022-10-02T03:17:21.870Z,997.92
2022-10-02T03:18:20.998Z,997.95
2022-10-02T03:19:19.516Z,997.89
2022-10-02T03:20:22.484Z,997.90
2022-10-02T03:21:21.196Z,997.92
2022-10-02T03:22:22.107Z,997.92
2022-10-02T03:23:20.934Z,997.96
2022-10-02T03:24:13.926Z,997.94
2022-10-02T03:25:13.176Z,997.95
2022-10-02T03:26:13.387Z,998.00
2022-10-02T03:27:13.324Z,997.97
2022-10-02T03:28:13.601Z,997.98
2022-10-02T03:29:13.468Z,997.98
2022-10-02T03:30:13.357Z,997.94
2022-10-02T03:31:13.615Z,997.97
2022-10-02T03:32:13.508Z,997.91
2022-10-02T03:33:13.341Z,997.96
2022-10-02T03:34:13.248Z,997.93
2022-10-02T03:35:13.206Z,997.97
2022-10-02T03:36:13.182Z,997.95
2022-10-02T03:37:13.060Z,997.99
2022-10-02T03:38:13.366Z,997.97
2022-10-02T03:39:24.822Z,997.94
2022-10-02T03:40:13.776Z,997.92
2022-10-02T03:41:13.811Z,997.95
2022-10-02T03:42:13.783Z,997.96
2022-10-02T03:43:13.698Z,997.98
2022-10-02T03:44:13.541Z,997.95
2022-10-02T03:45:27.254Z,997.93
2022-10-02T03:46:13.159Z,997.92
2022-10-02T03:47:13.099Z,997.94
2022-10-02T03:48:13.018Z,997.92
2022-10-02T03:49:12.976Z,997.94
2022-10-02T03:50:12.850Z,997.90
2022-10-02T03:51:13.820Z,997.91
2022-10-02T03:52:13.734Z,997.89
2022-10-02T03:53:14.004Z,997.84
2022-10-02T03:54:13.012Z,997.85
2022-10-02T03:55:13.100Z,997.89
2022-10-02T03:56:13.138Z,997.95
2022-10-02T03:57:14.213Z,997.91
2022-10-02T03:58:13.453Z,997.90
2022-10-02T03:59:13.864Z,997.82
2022-10-02T04:00:14.057Z,997.84
2022-10-02T04:01:13.098Z,997.83
2022-10-02T04:02:13.112Z,997.84
2022-10-02T04:03:13.164Z,997.85
2022-10-02T04:04:13.183Z,997.84
2022-10-02T04:05:13.119Z,997.84
2022-10-02T04:06:13.016Z,997.85
2022-10-02T04:07:12.935Z,997.86
2022-10-02T04:08:12.979Z,997.84
2022-10-02T04:09:12.996Z,997.86
2022-10-02T04:10:13.205Z,997.86
2022-10-02T04:11:13.285Z,997.88
2022-10-02T04:12:13.447Z,997.87
2022-10-02T04:13:13.570Z,997.91
2022-10-02T04:14:13.622Z,997.89
2022-10-02T04:15:13.734Z,997.92
2022-10-02T04:16:13.899Z,997.88
2022-10-02T04:17:12.946Z,997.87
2022-10-02T04:18:13.071Z,997.92
2022-10-02T04:19:13.237Z,997.90
2022-10-02T04:20:13.257Z,997.93
2022-10-02T04:21:18.403Z,997.93
2022-10-02T04:22:13.473Z,997.89
2022-10-02T04:23:13.427Z,997.91
2022-10-02T04:24:13.308Z,997.92
2022-10-02T04:25:13.200Z,997.95
2022-10-02T04:26:13.353Z,997.95
2022-10-02T04:27:13.244Z,997.94
2022-10-02T04:28:13.624Z,997.94
2022-10-02T04:29:13.622Z,997.90
2022-10-02T04:30:13.649Z,997.91
2022-10-02T04:31:13.981Z,997.96
2022-10-02T04:32:12.873Z,997.93
2022-10-02T04:33:12.776Z,997.91
2022-10-02T04:34:13.831Z,997.89
2022-10-02T04:35:14.000Z,997.95
2022-10-02T04:36:13.064Z,997.93
2022-10-02T04:37:12.990Z,997.93
2022-10-02T04:38:13.089Z,997.98
2022-10-02T04:39:13.092Z,997.96
2022-10-02T04:40:13.036Z,997.97
2022-10-02T04:41:12.981Z,998.01
2022-10-02T04:42:13.318Z,997.96
2022-10-02T04:43:13.195Z,998.00
2022-10-02T04:44:14.126Z,998.03
2022-10-02T04:45:12.976Z,998.00
2022-10-02T04:46:13.247Z,998.06
2022-10-02T04:47:13.564Z,998.09
2022-10-02T04:48:13.695Z,998.04
2022-10-02T04:49:13.611Z,998.13
2022-10-02T04:50:13.845Z,998.09
2022-10-02T04:51:13.776Z,998.03
2022-10-02T04:52:13.849Z,998.11
2022-10-02T04:53:13.807Z,998.13
2022-10-02T04:54:13.802Z,998.06
2022-10-02T04:55:13.983Z,998.10
2022-10-02T04:56:12.908Z,998.12
2022-10-02T04:57:13.255Z,998.14
2022-10-02T04:58:13.190Z,998.16
2022-10-02T04:59:13.198Z,998.15
2022-10-02T05:00:13.142Z,998.09
2022-10-02T05:01:13.499Z,998.11
2022-10-02T05:02:13.526Z,998.15
2022-10-02T05:03:13.750Z,998.12
2022-10-02T05:04:13.777Z,998.10
2022-10-02T05:05:13.780Z,998.05
2022-10-02T05:06:13.587Z,998.04
2022-10-02T05:07:13.481Z,998.05
2022-10-02T05:08:13.898Z,998.01
2022-10-02T05:09:12.928Z,998.06
2022-10-02T05:10:12.889Z,998.00
2022-10-02T05:11:13.313Z,998.07
2022-10-02T05:12:13.592Z,998.03
2022-10-02T05:13:13.629Z,998.01
2022-10-02T05:14:14.468Z,998.03
2022-10-02T05:15:13.495Z,998.06
2022-10-02T05:16:13.532Z,998.04
2022-10-02T05:17:14.093Z,998.05
2022-10-02T05:18:17.751Z,998.04
2022-10-02T05:19:13.052Z,998.06
2022-10-02T05:20:12.904Z,998.04
2022-10-02T05:21:12.891Z,998.04
2022-10-02T05:22:13.876Z,998.02
2022-10-02T05:23:13.754Z,998.05
2022-10-02T05:24:14.085Z,998.12
2022-10-02T05:25:13.389Z,998.14
2022-10-02T05:26:14.512Z,998.18
2022-10-02T05:27:13.835Z,998.22
2022-10-02T05:28:13.981Z,998.23
2022-10-02T05:29:14.045Z,998.26
2022-10-02T05:30:13.231Z,998.31
2022-10-02T05:31:13.314Z,998.30
2022-10-02T05:32:13.245Z,998.31
2022-10-02T05:33:13.508Z,998.30
2022-10-02T05:34:13.294Z,998.31
2022-10-02T05:35:13.537Z,998.35
2022-10-02T05:36:13.389Z,998.37
2022-10-02T05:37:13.307Z,998.42
2022-10-02T05:38:13.716Z,998.41
2022-10-02T05:39:13.651Z,998.40
2022-10-02T05:40:13.544Z,998.43
2022-10-02T05:41:13.549Z,998.41
2022-10-02T05:42:13.629Z,998.37
2022-10-02T05:43:13.907Z,998.36
2022-10-02T05:44:12.782Z,998.38
2022-10-02T05:45:13.847Z,998.38
2022-10-02T05:46:13.741Z,998.37
2022-10-02T05:47:13.755Z,998.39
2022-10-02T05:48:13.754Z,998.35
2022-10-02T05:49:13.757Z,998.34
2022-10-02T05:50:13.754Z,998.33
2022-10-02T05:51:13.704Z,998.32
2022-10-02T05:52:13.572Z,998.31
2022-10-02T05:53:13.422Z,998.31
2022-10-02T05:54:13.328Z,998.28
2022-10-02T05:55:13.341Z,998.31
2022-10-02T05:56:13.286Z,998.29
2022-10-02T05:57:13.321Z,998.33
2022-10-02T05:58:13.658Z,998.32
2022-10-02T05:59:13.727Z,998.33
2022-10-02T06:00:13.921Z,998.35
2022-10-02T06:01:13.008Z,998.32
2022-10-02T06:02:13.111Z,998.35
2022-10-02T06:03:13.184Z,998.38
2022-10-02T06:04:13.170Z,998.36
2022-10-02T06:05:13.291Z,998.38
2022-10-02T06:06:13.318Z,998.43
2022-10-02T06:07:13.311Z,998.44
2022-10-02T06:08:13.213Z,998.43
2022-10-02T06:09:17.678Z,998.43
2022-10-02T06:10:13.180Z,998.43
2022-10-02T06:11:13.098Z,998.45
2022-10-02T06:12:12.934Z,998.40
2022-10-02T06:13:12.810Z,998.42
2022-10-02T06:14:13.887Z,998.41
2022-10-02T06:15:13.930Z,998.50
2022-10-02T06:16:17.958Z,998.49
2022-10-02T06:17:12.923Z,998.58
2022-10-02T06:18:13.140Z,998.55
2022-10-02T06:19:13.512Z,998.61
2022-10-02T06:20:13.724Z,998.61
2022-10-02T06:21:13.895Z,998.60
2022-10-02T06:22:13.210Z,998.63
2022-10-02T06:23:13.323Z,998.69
2022-10-02T06:24:13.350Z,998.70
2022-10-02T06:25:13.355Z,998.71
2022-10-02T06:26:13.304Z,998.72
2022-10-02T06:27:13.194Z,998.69
2022-10-02T06:28:13.398Z,998.75
2022-10-02T06:29:17.532Z,998.74
2022-10-02T06:30:13.099Z,998.77
2022-10-02T06:31:12.999Z,998.75
2022-10-02T06:33:44.147Z,998.79
2022-10-02T06:34:13.231Z,998.82
2022-10-02T06:35:13.130Z,998.77
2022-10-02T06:36:13.115Z,998.81
2022-10-02T06:37:12.985Z,998.81
2022-10-02T06:38:12.928Z,998.82
2022-10-02T06:39:13.224Z,998.88
2022-10-02T06:40:13.246Z,998.82
2022-10-02T06:41:13.110Z,998.82
2022-10-02T06:42:13.097Z,998.81
2022-10-02T06:43:13.163Z,998.82
2022-10-02T06:44:13.092Z,998.87
2022-10-02T06:45:13.098Z,998.88
2022-10-02T06:46:13.169Z,998.86
2022-10-02T06:47:13.177Z,998.92
2022-10-02T06:48:13.405Z,998.98
2022-10-02T06:49:13.287Z,998.96
2022-10-02T06:50:13.206Z,999.01
2022-10-02T06:51:13.145Z,999.04
2022-10-02T06:52:12.943Z,999.02
2022-10-02T06:53:12.887Z,999.01
2022-10-02T06:54:13.179Z,999.00
2022-10-02T06:55:13.309Z,998.96
2022-10-02T06:56:13.614Z,998.91
2022-10-02T06:57:13.658Z,998.90
2022-10-02T06:58:13.948Z,998.88
2022-10-02T06:59:13.109Z,998.88
2022-10-02T07:00:13.049Z,998.91
2022-10-02T07:01:13.440Z,998.90
2022-10-02T07:02:13.513Z,998.95
2022-10-02T07:03:13.577Z,998.98
2022-10-02T07:04:14.132Z,999.04
2022-10-02T07:05:13.100Z,999.06
2022-10-02T07:06:13.203Z,999.09
2022-10-02T07:07:16.051Z,999.09
2022-10-02T07:08:13.108Z,999.14
2022-10-02T07:09:13.512Z,999.16
2022-10-02T07:10:13.852Z,999.13
2022-10-02T07:11:14.136Z,999.17
2022-10-02T07:12:13.227Z,999.13
2022-10-02T07:13:13.432Z,999.17
2022-10-02T07:14:13.411Z,999.15
2022-10-02T07:15:13.334Z,999.17
2022-10-02T07:16:13.463Z,999.14
2022-10-02T07:17:13.378Z,999.12
2022-10-02T07:18:13.504Z,999.10
2022-10-02T07:19:13.663Z,999.12
2022-10-02T07:20:13.547Z,999.12
2022-10-02T07:21:13.493Z,999.15
2022-10-02T07:22:32.733Z,999.15
2022-10-02T07:23:14.142Z,999.13
2022-10-02T07:24:13.126Z,999.14
2022-10-02T07:25:13.061Z,999.13
2022-10-02T07:26:13.552Z,999.16
2022-10-02T07:27:13.820Z,999.20
2022-10-02T07:28:14.192Z,999.12
2022-10-02T07:29:13.369Z,999.09
2022-10-02T07:30:14.567Z,999.13
2022-10-02T07:31:13.637Z,999.18
2022-10-02T07:32:13.594Z,999.16
2022-10-02T07:33:13.664Z,999.18
2022-10-02T07:34:14.287Z,999.15
2022-10-02T07:35:13.323Z,999.23
2022-10-02T07:36:13.477Z,999.22
2022-10-02T07:37:13.503Z,999.21
2022-10-02T07:38:13.703Z,999.28
2022-10-02T07:39:13.868Z,999.30
2022-10-02T07:40:13.741Z,999.30
2022-10-02T07:41:13.732Z,999.35
2022-10-02T07:42:13.639Z,999.29
2022-10-02T07:43:13.478Z,999.37
2022-10-02T07:44:13.585Z,999.40
2022-10-02T07:45:13.547Z,999.38
2022-10-02T07:46:13.745Z,999.43
2022-10-02T07:47:13.714Z,999.44
2022-10-02T07:48:13.709Z,999.46
2022-10-02T07:49:14.174Z,999.49
2022-10-02T07:50:13.320Z,999.48
2022-10-02T07:51:16.091Z,999.49
2022-10-02T07:52:12.935Z,999.49
2022-10-02T07:53:12.865Z,999.47
2022-10-02T07:54:13.697Z,999.50
2022-10-02T07:55:13.880Z,999.54
2022-10-02T07:56:14.198Z,999.59
2022-10-02T07:57:13.273Z,999.57
2022-10-02T07:58:13.269Z,999.56
2022-10-02T07:59:13.571Z,999.55
2022-10-02T08:00:13.549Z,999.53
2022-10-02T08:01:13.760Z,999.56
2022-10-02T08:02:14.181Z,999.55
2022-10-02T08:03:13.265Z,999.56
2022-10-02T08:04:13.560Z,999.56
2022-10-02T08:05:13.471Z,999.59
2022-10-02T08:06:13.592Z,999.57
2022-10-02T08:07:13.583Z,999.55
2022-10-02T08:08:13.442Z,999.57
2022-10-02T08:09:13.626Z,999.59
2022-10-02T08:10:13.703Z,999.59
2022-10-02T08:11:13.988Z,999.63
2022-10-02T08:12:13.026Z,999.59
2022-10-02T08:13:13.113Z,999.63
2022-10-02T08:14:13.059Z,999.62
2022-10-02T08:15:13.405Z,999.57
2022-10-02T08:16:13.694Z,999.60
2022-10-02T08:17:13.812Z,999.57
2022-10-02T08:18:33.105Z,999.57
2022-10-02T08:19:13.187Z,999.60
2022-10-02T08:20:13.194Z,999.59
2022-10-02T08:21:13.059Z,999.58
2022-10-02T08:22:13.333Z,999.61
2022-10-02T08:23:14.485Z,999.71
2022-10-02T08:24:13.545Z,999.71
2022-10-02T08:25:13.601Z,999.72
2022-10-02T08:26:15.081Z,999.76
2022-10-02T08:27:13.045Z,999.70
2022-10-02T08:28:13.064Z,999.72
2022-10-02T08:29:13.097Z,999.73
2022-10-02T08:30:18.221Z,999.72
2022-10-02T08:31:13.611Z,999.74
2022-10-02T08:32:13.577Z,999.71
2022-10-02T08:33:13.768Z,999.71
2022-10-02T08:34:13.841Z,999.70
2022-10-02T08:35:13.796Z,999.71
2022-10-02T08:36:13.798Z,999.67
2022-10-02T08:37:13.736Z,999.71
2022-10-02T08:38:14.008Z,999.64
2022-10-02T08:39:13.129Z,999.73
2022-10-02T08:40:13.130Z,999.71
2022-10-02T08:41:13.781Z,999.69
2022-10-02T08:42:25.013Z,999.71
2022-10-02T08:43:13.527Z,999.71
2022-10-02T08:44:13.539Z,999.70
2022-10-02T08:45:13.509Z,999.70
2022-10-02T08:46:13.596Z,999.71
2022-10-02T08:47:13.594Z,999.70
2022-10-02T08:48:13.510Z,999.74
2022-10-02T08:49:13.499Z,999.76
2022-10-02T08:51:14.003Z,999.75
2022-10-02T08:52:40.225Z,999.79
2022-10-02T08:53:14.617Z,999.73
2022-10-02T08:54:29.623Z,999.76
2022-10-02T08:55:13.880Z,999.78
2022-10-02T08:56:19.185Z,999.71
2022-10-02T08:57:13.058Z,999.71
2022-10-02T08:58:18.285Z,999.77
2022-10-02T08:59:15.241Z,999.76
2022-10-02T09:00:13.389Z,999.77
2022-10-02T09:01:13.623Z,999.75
2022-10-02T09:02:13.572Z,999.75
2022-10-02T09:03:13.708Z,999.79
2022-10-02T09:04:14.071Z,999.77
2022-10-02T09:05:23.178Z,999.79
2022-10-02T09:06:13.228Z,999.79
2022-10-02T09:07:13.471Z,999.80
2022-10-02T09:08:13.397Z,999.83
2022-10-02T09:09:13.363Z,999.83
2022-10-02T09:10:13.393Z,999.81
2022-10-02T09:11:13.498Z,999.80
2022-10-02T09:13:13.362Z,999.82
2022-10-02T09:14:13.334Z,999.82
2022-10-02T09:15:13.443Z,999.86
2022-10-02T09:16:13.627Z,999.87
2022-10-02T09:17:13.495Z,999.85
2022-10-02T09:18:13.463Z,999.88
2022-10-02T09:19:13.746Z,999.91
2022-10-02T09:20:13.908Z,999.92
2022-10-02T09:21:13.179Z,999.92
2022-10-02T09:22:18.310Z,999.87
2022-10-02T09:23:13.415Z,999.90
2022-10-02T09:24:13.474Z,999.90
2022-10-02T09:25:13.536Z,999.88
2022-10-02T09:26:13.390Z,999.91
2022-10-02T09:27:13.987Z,999.87
2022-10-02T09:28:51.579Z,999.90
2022-10-02T09:29:15.209Z,999.86
2022-10-02T09:30:13.465Z,999.87
2022-10-02T09:31:13.530Z,999.84
2022-10-02T09:32:13.862Z,999.91
2022-10-02T09:33:16.010Z,999.88
2022-10-02T09:34:13.530Z,999.95
2022-10-02T09:35:13.506Z,999.94
2022-10-02T09:36:13.442Z,999.95
2022-10-02T09:37:13.312Z,999.92
2022-10-02T09:38:16.788Z,999.98
2022-10-02T09:39:33.910Z,999.98
2022-10-02T09:40:17.966Z,999.99
2022-10-02T09:41:12.855Z,1000.02
2022-10-02T09:42:13.778Z,999.99
2022-10-02T09:43:13.842Z,1000.01
2022-10-02T09:44:13.711Z,999.95
2022-10-02T09:45:23.641Z,999.96
2022-10-02T09:46:29.736Z,999.98
2022-10-02T09:47:14.020Z,999.96
2022-10-02T09:48:14.146Z,999.99
2022-10-02T09:49:13.289Z,1000.00
2022-10-02T09:50:13.672Z,1000.00
2022-10-02T09:51:13.984Z,1000.00
2022-10-02T09:52:13.382Z,1000.02
2022-10-02T09:53:13.605Z,999.99
2022-10-02T09:54:13.639Z,999.99
2022-10-02T09:55:13.952Z,999.97
2022-10-02T09:56:12.927Z,1000.01
2022-10-02T09:57:22.870Z,1000.00
2022-10-02T09:58:12.898Z,1000.00
2022-10-02T09:59:13.338Z,1000.03
2022-10-02T10:00:13.931Z,999.95
2022-10-02T10:01:13.105Z,999.99
2022-10-02T10:02:13.043Z,1000.02
2022-10-02T10:03:13.013Z,1000.01
2022-10-02T10:04:17.966Z,1000.02
2022-10-02T10:06:13.133Z,999.97
2022-10-02T10:07:16.305Z,1000.04
2022-10-02T10:08:13.143Z,1000.05
2022-10-02T10:09:13.774Z,1000.05
2022-10-02T10:10:15.851Z,1000.03
2022-10-02T10:11:13.320Z,1000.05
2022-10-02T10:12:13.303Z,1000.10
2022-10-02T10:13:13.513Z,1000.06
2022-10-02T10:14:13.502Z,1000.05
2022-10-02T10:15:13.506Z,1000.10
2022-10-02T10:16:13.995Z,1000.01
2022-10-02T10:17:17.998Z,1000.07
2022-10-02T10:18:14.467Z,1000.07
2022-10-02T10:19:13.837Z,1000.10
2022-10-02T10:20:13.854Z,1000.09
2022-10-02T10:21:13.924Z,1000.07
2022-10-02T10:22:13.245Z,1000.10
2022-10-02T10:23:13.112Z,1000.07
2022-10-02T10:24:13.046Z,1000.07
2022-10-02T10:25:12.888Z,1000.07
2022-10-02T10:26:13.891Z,1000.10
2022-10-02T10:27:13.224Z,1000.11
2022-10-02T10:28:13.224Z,1000.15
2022-10-02T10:29:13.530Z,1000.15
2022-10-02T10:30:13.494Z,1000.14
2022-10-02T10:31:13.452Z,1000.22
2022-10-02T10:32:13.709Z,1000.23
2022-10-02T10:33:19.001Z,1000.21
2022-10-02T10:34:13.023Z,1000.27
2022-10-02T10:35:12.925Z,1000.25
2022-10-02T10:36:12.794Z,1000.25
2022-10-02T10:37:13.840Z,1000.31
2022-10-02T10:38:13.677Z,1000.32
2022-10-02T10:39:14.080Z,1000.35
2022-10-02T10:40:13.025Z,1000.32
2022-10-02T10:41:12.953Z,1000.32
2022-10-02T10:42:13.229Z,1000.33
2022-10-02T10:43:16.566Z,1000.31
2022-10-02T10:44:12.942Z,1000.34
2022-10-02T10:45:12.976Z,1000.34
2022-10-02T10:46:12.990Z,1000.39
2022-10-02T10:47:13.020Z,1000.38
2022-10-02T10:48:13.067Z,1000.43
2022-10-02T10:49:13.108Z,1000.43
2022-10-02T10:50:13.068Z,1000.41
2022-10-02T10:51:13.057Z,1000.44
2022-10-02T10:52:13.145Z,1000.48
2022-10-02T10:53:13.214Z,1000.48
2022-10-02T10:54:13.291Z,1000.50
2022-10-02T10:55:18.236Z,1000.49
2022-10-02T10:56:27.070Z,1000.48
2022-10-02T10:57:13.031Z,1000.61
2022-10-02T10:58:13.060Z,1000.57
2022-10-02T10:59:13.173Z,1000.56
2022-10-02T11:00:13.478Z,1000.54
2022-10-02T11:01:27.095Z,1000.57
2022-10-02T11:02:13.320Z,1000.57
2022-10-02T11:03:18.770Z,1000.62
2022-10-02T11:04:14.410Z,1000.61
2022-10-02T11:05:13.556Z,1000.57
2022-10-02T11:06:13.700Z,1000.59
2022-10-02T11:07:13.832Z,1000.60
2022-10-02T11:08:14.131Z,1000.55
2022-10-02T11:09:13.071Z,1000.55
2022-10-02T11:10:12.974Z,1000.58
2022-10-02T11:11:12.967Z,1000.62
2022-10-02T11:12:13.150Z,1000.57
2022-10-02T11:13:13.378Z,1000.64
2022-10-02T11:14:13.268Z,1000.63
2022-10-02T11:15:13.491Z,1000.64
2022-10-02T11:16:15.269Z,1000.67
2022-10-02T11:17:13.661Z,1000.71
2022-10-02T11:18:13.637Z,1000.70
2022-10-02T11:19:16.760Z,1000.71
2022-10-02T11:20:13.253Z,1000.73
2022-10-02T11:21:13.134Z,1000.75
2022-10-02T11:22:13.368Z,1000.74
2022-10-02T11:23:13.503Z,1000.76
2022-10-02T11:24:13.587Z,1000.81
2022-10-02T11:25:13.447Z,1000.79
2022-10-02T11:26:13.541Z,1000.77
2022-10-02T11:27:23.107Z,1000.85
2022-10-02T11:28:13.095Z,1000.84
2022-10-02T11:29:13.188Z,1000.81
2022-10-02T11:30:13.229Z,1000.78
2022-10-02T11:31:13.460Z,1000.78
2022-10-02T11:32:13.643Z,1000.76
2022-10-02T11:33:13.689Z,1000.77
2022-10-02T11:34:13.659Z,1000.81
2022-10-02T11:35:13.556Z,1000.80
2022-10-02T11:36:25.049Z,1000.83
2022-10-02T11:37:24.775Z,1000.87
2022-10-02T11:38:14.041Z,1000.89
2022-10-02T11:39:13.125Z,1000.92
2022-10-02T11:40:18.971Z,1000.85
2022-10-02T11:41:13.192Z,1000.99
2022-10-02T11:42:13.086Z,1000.94
2022-10-02T11:43:13.286Z,1000.90
2022-10-02T11:44:13.179Z,1000.92
2022-10-02T11:45:18.221Z,1000.91
2022-10-02T11:46:13.177Z,1000.95
2022-10-02T11:47:13.060Z,1000.93
2022-10-02T11:48:13.032Z,1000.95
2022-10-02T11:49:13.251Z,1000.90
2022-10-02T11:50:13.362Z,1000.86
2022-10-02T11:51:13.257Z,1000.92
2022-10-02T11:52:13.168Z,1000.92
2022-10-02T11:53:13.392Z,1000.95
2022-10-02T11:54:13.280Z,1000.92
2022-10-02T11:55:13.277Z,1000.88
2022-10-02T11:56:13.279Z,1000.93
2022-10-02T11:57:13.264Z,1000.90
2022-10-02T11:58:13.271Z,1000.87
2022-10-02T11:59:13.180Z,1000.96
2022-10-02T12:00:13.158Z,1000.92
2022-10-02T12:01:13.150Z,1000.90
2022-10-02T12:02:16.381Z,1000.88
2022-10-02T12:03:14.136Z,1000.89
2022-10-02T12:04:13.256Z,1000.90
2022-10-02T12:06:18.007Z,1000.95
2022-10-02T12:07:16.891Z,1000.95
2022-10-02T12:08:14.197Z,1001.00
2022-10-02T12:09:13.320Z,1000.95
2022-10-02T12:10:14.379Z,1000.97
2022-10-02T12:11:13.433Z,1000.95
2022-10-02T12:13:13.697Z,1000.94
2022-10-02T12:14:14.080Z,1000.96
2022-10-02T12:15:13.598Z,1000.96
2022-10-02T12:16:13.649Z,1001.00
2022-10-02T12:17:13.814Z,1000.99
2022-10-02T12:18:18.243Z,1000.96
2022-10-02T12:19:12.954Z,1000.95
2022-10-02T12:20:12.872Z,1000.94
2022-10-02T12:21:14.046Z,1000.98
2022-10-02T12:22:13.152Z,1000.99
2022-10-02T12:23:12.981Z,1000.97
2022-10-02T12:24:12.973Z,1001.03
2022-10-02T12:25:13.117Z,1000.98
2022-10-02T12:26:13.243Z,1001.05
2022-10-02T12:27:13.879Z,1001.04
2022-10-02T12:28:13.773Z,1001.04
2022-10-02T12:29:13.765Z,1001.04